sensor_id;sensor_type;location;lat;lon;timestamp;P1;durP1;ratioP1;P2;durP2;ratioP2
61188;SDS011;47054;39.716;2.904;2023-04-01T00:02:29;16.88;;;5.80;;
61188;SDS011;47054;39.716;2.904;2023-04-01T00:05:14;14.10;;;5.28;;
61188;SDS011;47054;39.716;2.904;2023-04-01T00:08:00;14.38;;;5.18;;
61188;SDS011;47054;39.716;2.904;2023-04-01T00:10:44;11.57;;;4.97;;
61188;SDS011;47054;39.716;2.904;2023-04-01T00:13:30;13.45;;;5.10;;
61188;SDS011;47054;39.716;2.904;2023-04-01T00:16:14;16.63;;;5.45;;
61188;SDS011;47054;39.716;2.904;2023-04-01T00:19:00;13.80;;;5.43;;
61188;SDS011;47054;39.716;2.904;2023-04-01T00:21:44;13.00;;;4.90;;
61188;SDS011;47054;39.716;2.904;2023-04-01T00:24:29;14.30;;;5.07;;
61188;SDS011;47054;39.716;2.904;2023-04-01T00:27:14;17.60;;;6.10;;
61188;SDS011;47054;39.716;2.904;2023-04-01T00:29:59;16.75;;;5.10;;
61188;SDS011;47054;39.716;2.904;2023-04-01T00:32:44;13.88;;;4.60;;
61188;SDS011;47054;39.716;2.904;2023-04-01T00:35:29;13.15;;;5.10;;
61188;SDS011;47054;39.716;2.904;2023-04-01T00:38:14;12.55;;;5.18;;
61188;SDS011;47054;39.716;2.904;2023-04-01T00:40:58;18.73;;;5.32;;
61188;SDS011;47054;39.716;2.904;2023-04-01T00:43:44;13.27;;;5.05;;
61188;SDS011;47054;39.716;2.904;2023-04-01T00:46:31;18.85;;;5.60;;
61188;SDS011;47054;39.716;2.904;2023-04-01T00:49:17;13.00;;;4.85;;
61188;SDS011;47054;39.716;2.904;2023-04-01T00:52:04;15.18;;;5.20;;
61188;SDS011;47054;39.716;2.904;2023-04-01T00:54:52;18.33;;;6.10;;
61188;SDS011;47054;39.716;2.904;2023-04-01T00:57:41;17.15;;;5.47;;
61188;SDS011;47054;39.716;2.904;2023-04-01T01:00:28;14.93;;;5.05;;
61188;SDS011;47054;39.716;2.904;2023-04-01T01:03:12;18.95;;;5.35;;
61188;SDS011;47054;39.716;2.904;2023-04-01T01:11:56;13.20;;;5.35;;
61188;SDS011;47054;39.716;2.904;2023-04-01T01:18:53;16.08;;;5.18;;
61188;SDS011;47054;39.716;2.904;2023-04-01T01:27:30;13.18;;;5.63;;
61188;SDS011;47054;39.716;2.904;2023-04-01T01:36:01;14.23;;;5.90;;
61188;SDS011;47054;39.716;2.904;2023-04-01T01:38:49;13.98;;;5.10;;
61188;SDS011;47054;39.716;2.904;2023-04-01T01:41:35;19.00;;;6.07;;
61188;SDS011;47054;39.716;2.904;2023-04-01T01:44:22;20.02;;;5.75;;
61188;SDS011;47054;39.716;2.904;2023-04-01T01:47:09;16.02;;;5.70;;
61188;SDS011;47054;39.716;2.904;2023-04-01T01:49:55;11.55;;;5.35;;
61188;SDS011;47054;39.716;2.904;2023-04-01T01:52:41;14.98;;;5.40;;
61188;SDS011;47054;39.716;2.904;2023-04-01T01:55:31;16.50;;;6.03;;
61188;SDS011;47054;39.716;2.904;2023-04-01T01:58:34;16.98;;;5.30;;
61188;SDS011;47054;39.716;2.904;2023-04-01T02:01:27;13.30;;;5.40;;
61188;SDS011;47054;39.716;2.904;2023-04-01T02:04:20;15.52;;;5.53;;
61188;SDS011;47054;39.716;2.904;2023-04-01T02:07:11;16.38;;;5.93;;
61188;SDS011;47054;39.716;2.904;2023-04-01T02:10:02;19.70;;;5.80;;
61188;SDS011;47054;39.716;2.904;2023-04-01T02:12:48;14.13;;;5.22;;
61188;SDS011;47054;39.716;2.904;2023-04-01T02:15:36;15.70;;;5.35;;
61188;SDS011;47054;39.716;2.904;2023-04-01T02:18:25;12.10;;;4.90;;
61188;SDS011;47054;39.716;2.904;2023-04-01T02:21:10;14.43;;;5.30;;
61188;SDS011;47054;39.716;2.904;2023-04-01T02:23:56;17.70;;;5.75;;
61188;SDS011;47054;39.716;2.904;2023-04-01T02:26:44;13.30;;;4.85;;
61188;SDS011;47054;39.716;2.904;2023-04-01T02:29:30;11.95;;;5.38;;
61188;SDS011;47054;39.716;2.904;2023-04-01T02:32:14;15.55;;;5.15;;
61188;SDS011;47054;39.716;2.904;2023-04-01T02:35:01;11.45;;;5.13;;
61188;SDS011;47054;39.716;2.904;2023-04-01T02:37:50;14.63;;;5.38;;
61188;SDS011;47054;39.716;2.904;2023-04-01T02:40:44;14.15;;;5.82;;
61188;SDS011;47054;39.716;2.904;2023-04-01T02:43:34;10.65;;;4.88;;
61188;SDS011;47054;39.716;2.904;2023-04-01T02:46:19;18.27;;;5.13;;
61188;SDS011;47054;39.716;2.904;2023-04-01T02:49:04;12.90;;;5.20;;
61188;SDS011;47054;39.716;2.904;2023-04-01T02:51:49;15.18;;;5.38;;
61188;SDS011;47054;39.716;2.904;2023-04-01T02:54:33;16.88;;;5.68;;
61188;SDS011;47054;39.716;2.904;2023-04-01T02:57:18;14.77;;;5.00;;
61188;SDS011;47054;39.716;2.904;2023-04-01T03:00:03;10.27;;;4.78;;
61188;SDS011;47054;39.716;2.904;2023-04-01T03:02:48;13.20;;;5.22;;
61188;SDS011;47054;39.716;2.904;2023-04-01T03:05:33;12.20;;;5.10;;
61188;SDS011;47054;39.716;2.904;2023-04-01T03:08:18;14.43;;;5.28;;
61188;SDS011;47054;39.716;2.904;2023-04-01T03:11:03;13.73;;;5.70;;
61188;SDS011;47054;39.716;2.904;2023-04-01T03:13:51;13.80;;;5.40;;
61188;SDS011;47054;39.716;2.904;2023-04-01T03:16:36;13.52;;;4.95;;
61188;SDS011;47054;39.716;2.904;2023-04-01T03:19:21;14.20;;;5.43;;
61188;SDS011;47054;39.716;2.904;2023-04-01T03:22:06;9.82;;;5.47;;
61188;SDS011;47054;39.716;2.904;2023-04-01T03:24:51;12.73;;;5.70;;
61188;SDS011;47054;39.716;2.904;2023-04-01T03:27:36;14.57;;;5.00;;
61188;SDS011;47054;39.716;2.904;2023-04-01T03:30:21;16.65;;;5.55;;
61188;SDS011;47054;39.716;2.904;2023-04-01T03:33:08;14.18;;;5.03;;
61188;SDS011;47054;39.716;2.904;2023-04-01T03:35:53;14.30;;;5.22;;
61188;SDS011;47054;39.716;2.904;2023-04-01T03:38:39;14.32;;;5.70;;
61188;SDS011;47054;39.716;2.904;2023-04-01T03:41:25;9.75;;;4.78;;
61188;SDS011;47054;39.716;2.904;2023-04-01T03:44:10;12.27;;;5.40;;
61188;SDS011;47054;39.716;2.904;2023-04-01T03:46:55;9.93;;;5.00;;
61188;SDS011;47054;39.716;2.904;2023-04-01T03:49:40;14.50;;;4.82;;
61188;SDS011;47054;39.716;2.904;2023-04-01T03:52:24;11.23;;;5.10;;
61188;SDS011;47054;39.716;2.904;2023-04-01T03:55:09;13.48;;;5.53;;
61188;SDS011;47054;39.716;2.904;2023-04-01T03:57:55;12.30;;;5.22;;
61188;SDS011;47054;39.716;2.904;2023-04-01T04:00:40;10.55;;;5.00;;
61188;SDS011;47054;39.716;2.904;2023-04-01T04:03:25;12.70;;;4.80;;
61188;SDS011;47054;39.716;2.904;2023-04-01T04:06:10;12.40;;;4.90;;
61188;SDS011;47054;39.716;2.904;2023-04-01T04:08:56;16.30;;;5.53;;
61188;SDS011;47054;39.716;2.904;2023-04-01T04:11:41;14.60;;;5.00;;
61188;SDS011;47054;39.716;2.904;2023-04-01T04:14:25;12.88;;;4.72;;
61188;SDS011;47054;39.716;2.904;2023-04-01T04:17:10;14.68;;;4.90;;
61188;SDS011;47054;39.716;2.904;2023-04-01T04:20:01;9.43;;;4.80;;
61188;SDS011;47054;39.716;2.904;2023-04-01T04:22:46;11.80;;;4.97;;
61188;SDS011;47054;39.716;2.904;2023-04-01T04:25:31;15.32;;;5.57;;
61188;SDS011;47054;39.716;2.904;2023-04-01T04:28:16;10.20;;;4.43;;
61188;SDS011;47054;39.716;2.904;2023-04-01T04:31:00;10.77;;;4.43;;
61188;SDS011;47054;39.716;2.904;2023-04-01T04:33:46;14.38;;;4.93;;
61188;SDS011;47054;39.716;2.904;2023-04-01T04:36:31;11.38;;;4.88;;
61188;SDS011;47054;39.716;2.904;2023-04-01T04:39:15;10.23;;;4.40;;
61188;SDS011;47054;39.716;2.904;2023-04-01T04:42:01;14.40;;;4.75;;
61188;SDS011;47054;39.716;2.904;2023-04-01T04:44:46;7.68;;;4.28;;
61188;SDS011;47054;39.716;2.904;2023-04-01T04:47:31;11.77;;;4.70;;
61188;SDS011;47054;39.716;2.904;2023-04-01T04:50:15;11.43;;;4.47;;
61188;SDS011;47054;39.716;2.904;2023-04-01T04:53:01;11.32;;;5.00;;
61188;SDS011;47054;39.716;2.904;2023-04-01T04:55:47;10.27;;;4.28;;
61188;SDS011;47054;39.716;2.904;2023-04-01T04:59:05;11.13;;;4.78;;
61188;SDS011;47054;39.716;2.904;2023-04-01T05:02:00;11.55;;;4.43;;
61188;SDS011;47054;39.716;2.904;2023-04-01T05:04:46;11.75;;;4.38;;
61188;SDS011;47054;39.716;2.904;2023-04-01T05:07:30;11.20;;;4.35;;
61188;SDS011;47054;39.716;2.904;2023-04-01T05:10:15;8.15;;;4.43;;
61188;SDS011;47054;39.716;2.904;2023-04-01T05:12:59;6.95;;;4.00;;
61188;SDS011;47054;39.716;2.904;2023-04-01T05:15:44;8.68;;;3.92;;
61188;SDS011;47054;39.716;2.904;2023-04-01T05:18:29;11.18;;;4.13;;
61188;SDS011;47054;39.716;2.904;2023-04-01T05:21:14;7.05;;;4.43;;
61188;SDS011;47054;39.716;2.904;2023-04-01T05:23:59;7.82;;;4.10;;
61188;SDS011;47054;39.716;2.904;2023-04-01T05:26:44;9.40;;;4.35;;
61188;SDS011;47054;39.716;2.904;2023-04-01T05:29:29;9.65;;;4.20;;
61188;SDS011;47054;39.716;2.904;2023-04-01T05:32:22;11.88;;;4.43;;
61188;SDS011;47054;39.716;2.904;2023-04-01T05:35:06;9.02;;;3.97;;
61188;SDS011;47054;39.716;2.904;2023-04-01T05:37:51;9.50;;;4.30;;
61188;SDS011;47054;39.716;2.904;2023-04-01T05:40:36;11.15;;;4.30;;
61188;SDS011;47054;39.716;2.904;2023-04-01T05:43:21;11.63;;;4.40;;
61188;SDS011;47054;39.716;2.904;2023-04-01T05:46:08;7.88;;;4.35;;
61188;SDS011;47054;39.716;2.904;2023-04-01T05:49:05;10.73;;;4.28;;
61188;SDS011;47054;39.716;2.904;2023-04-01T05:51:50;9.25;;;4.78;;
61188;SDS011;47054;39.716;2.904;2023-04-01T05:54:36;8.82;;;4.25;;
61188;SDS011;47054;39.716;2.904;2023-04-01T05:57:21;10.82;;;4.75;;
61188;SDS011;47054;39.716;2.904;2023-04-01T06:00:06;11.77;;;4.63;;
61188;SDS011;47054;39.716;2.904;2023-04-01T06:02:58;8.48;;;4.38;;
61188;SDS011;47054;39.716;2.904;2023-04-01T06:05:43;7.63;;;4.07;;
61188;SDS011;47054;39.716;2.904;2023-04-01T06:08:30;9.23;;;4.43;;
61188;SDS011;47054;39.716;2.904;2023-04-01T06:11:22;9.45;;;4.43;;
61188;SDS011;47054;39.716;2.904;2023-04-01T06:14:32;9.73;;;4.20;;
61188;SDS011;47054;39.716;2.904;2023-04-01T06:32:29;9.40;;;5.10;;
61188;SDS011;47054;39.716;2.904;2023-04-01T06:41:21;9.88;;;5.45;;
61188;SDS011;47054;39.716;2.904;2023-04-01T06:44:23;14.57;;;6.50;;
61188;SDS011;47054;39.716;2.904;2023-04-01T06:47:42;13.18;;;5.38;;
61188;SDS011;47054;39.716;2.904;2023-04-01T06:58:36;10.00;;;5.38;;
61188;SDS011;47054;39.716;2.904;2023-04-01T07:01:29;12.30;;;6.03;;
61188;SDS011;47054;39.716;2.904;2023-04-01T07:04:18;13.32;;;5.63;;
61188;SDS011;47054;39.716;2.904;2023-04-01T07:13:25;12.80;;;5.90;;
61188;SDS011;47054;39.716;2.904;2023-04-01T07:19:12;11.80;;;5.70;;
61188;SDS011;47054;39.716;2.904;2023-04-01T07:25:53;8.75;;;5.18;;
61188;SDS011;47054;39.716;2.904;2023-04-01T07:28:45;11.10;;;5.65;;
61188;SDS011;47054;39.716;2.904;2023-04-01T07:31:56;13.65;;;5.32;;
61188;SDS011;47054;39.716;2.904;2023-04-01T07:38:20;10.88;;;5.45;;
61188;SDS011;47054;39.716;2.904;2023-04-01T07:47:16;9.95;;;5.30;;
61188;SDS011;47054;39.716;2.904;2023-04-01T07:50:25;10.75;;;5.13;;
61188;SDS011;47054;39.716;2.904;2023-04-01T08:03:23;11.05;;;5.25;;
61188;SDS011;47054;39.716;2.904;2023-04-01T08:22:19;10.85;;;5.15;;
61188;SDS011;47054;39.716;2.904;2023-04-01T08:25:23;11.25;;;5.10;;
61188;SDS011;47054;39.716;2.904;2023-04-01T08:28:13;8.40;;;4.75;;
61188;SDS011;47054;39.716;2.904;2023-04-01T08:33:53;13.30;;;5.53;;
61188;SDS011;47054;39.716;2.904;2023-04-01T08:36:41;10.10;;;4.65;;
61188;SDS011;47054;39.716;2.904;2023-04-01T08:39:44;11.30;;;5.30;;
61188;SDS011;47054;39.716;2.904;2023-04-01T08:42:49;8.50;;;4.47;;
61188;SDS011;47054;39.716;2.904;2023-04-01T08:45:42;10.65;;;5.70;;
61188;SDS011;47054;39.716;2.904;2023-04-01T08:55:30;27.17;;;9.85;;
61188;SDS011;47054;39.716;2.904;2023-04-01T09:24:26;28.10;;;7.07;;
61188;SDS011;47054;39.716;2.904;2023-04-01T09:36:38;32.60;;;7.90;;
61188;SDS011;47054;39.716;2.904;2023-04-01T09:42:44;34.75;;;8.13;;
61188;SDS011;47054;39.716;2.904;2023-04-01T09:45:48;39.33;;;7.60;;
61188;SDS011;47054;39.716;2.904;2023-04-01T09:48:46;37.90;;;7.78;;
61188;SDS011;47054;39.716;2.904;2023-04-01T10:42:44;49.28;;;5.97;;
61188;SDS011;47054;39.716;2.904;2023-04-01T10:46:14;41.72;;;6.68;;
61188;SDS011;47054;39.716;2.904;2023-04-01T10:56:07;20.77;;;6.45;;
61188;SDS011;47054;39.716;2.904;2023-04-01T11:23:01;32.97;;;6.28;;
61188;SDS011;47054;39.716;2.904;2023-04-01T11:26:03;25.58;;;5.70;;
61188;SDS011;47054;39.716;2.904;2023-04-01T11:29:18;25.50;;;7.88;;
61188;SDS011;47054;39.716;2.904;2023-04-01T11:38:26;25.67;;;5.85;;
61188;SDS011;47054;39.716;2.904;2023-04-01T11:45:26;26.58;;;6.60;;
61188;SDS011;47054;39.716;2.904;2023-04-01T11:57:41;33.20;;;7.60;;
61188;SDS011;47054;39.716;2.904;2023-04-01T12:19:07;21.52;;;5.25;;
61188;SDS011;47054;39.716;2.904;2023-04-01T12:25:50;20.83;;;5.57;;
61188;SDS011;47054;39.716;2.904;2023-04-01T12:31:35;18.95;;;5.65;;
61188;SDS011;47054;39.716;2.904;2023-04-01T12:37:50;28.35;;;5.88;;
61188;SDS011;47054;39.716;2.904;2023-04-01T12:43:12;22.05;;;5.68;;
61188;SDS011;47054;39.716;2.904;2023-04-01T12:52:20;21.48;;;5.95;;
61188;SDS011;47054;39.716;2.904;2023-04-01T13:01:52;26.60;;;6.15;;
61188;SDS011;47054;39.716;2.904;2023-04-01T13:45:01;15.32;;;5.65;;
61188;SDS011;47054;39.716;2.904;2023-04-01T14:00:22;18.25;;;5.70;;
61188;SDS011;47054;39.716;2.904;2023-04-01T14:06:14;17.10;;;5.25;;
61188;SDS011;47054;39.716;2.904;2023-04-01T14:09:20;16.30;;;4.93;;
61188;SDS011;47054;39.716;2.904;2023-04-01T14:25:03;18.25;;;5.15;;
61188;SDS011;47054;39.716;2.904;2023-04-01T14:34:03;14.00;;;5.10;;
61188;SDS011;47054;39.716;2.904;2023-04-01T14:49:46;15.32;;;5.15;;
61188;SDS011;47054;39.716;2.904;2023-04-01T14:52:32;19.08;;;5.07;;
61188;SDS011;47054;39.716;2.904;2023-04-01T14:55:30;13.23;;;4.63;;
61188;SDS011;47054;39.716;2.904;2023-04-01T14:58:19;17.60;;;4.60;;
61188;SDS011;47054;39.716;2.904;2023-04-01T15:04:03;14.65;;;4.78;;
61188;SDS011;47054;39.716;2.904;2023-04-01T15:37:19;11.98;;;4.20;;
61188;SDS011;47054;39.716;2.904;2023-04-01T15:45:58;9.13;;;3.90;;
61188;SDS011;47054;39.716;2.904;2023-04-01T15:49:07;14.80;;;4.72;;
61188;SDS011;47054;39.716;2.904;2023-04-01T15:52:22;13.07;;;4.15;;
61188;SDS011;47054;39.716;2.904;2023-04-01T15:55:31;12.70;;;4.63;;
61188;SDS011;47054;39.716;2.904;2023-04-01T16:11:03;9.40;;;3.97;;
61188;SDS011;47054;39.716;2.904;2023-04-01T16:14:07;18.85;;;5.40;;
61188;SDS011;47054;39.716;2.904;2023-04-01T16:23:04;11.13;;;4.10;;
61188;SDS011;47054;39.716;2.904;2023-04-01T16:26:01;14.20;;;4.40;;
61188;SDS011;47054;39.716;2.904;2023-04-01T16:29:03;13.93;;;4.30;;
61188;SDS011;47054;39.716;2.904;2023-04-01T16:38:14;17.38;;;4.47;;
61188;SDS011;47054;39.716;2.904;2023-04-01T16:41:04;11.68;;;4.43;;
61188;SDS011;47054;39.716;2.904;2023-04-01T16:44:43;11.65;;;3.72;;
61188;SDS011;47054;39.716;2.904;2023-04-01T16:46:57;12.77;;;4.32;;
61188;SDS011;47054;39.716;2.904;2023-04-01T16:49:56;10.70;;;4.30;;
61188;SDS011;47054;39.716;2.904;2023-04-01T17:05:06;11.05;;;4.32;;
61188;SDS011;47054;39.716;2.904;2023-04-01T17:20:12;12.65;;;4.35;;
61188;SDS011;47054;39.716;2.904;2023-04-01T17:26:19;12.18;;;4.55;;
61188;SDS011;47054;39.716;2.904;2023-04-01T17:35:22;21.15;;;5.65;;
61188;SDS011;47054;39.716;2.904;2023-04-01T17:38:20;21.73;;;4.40;;
61188;SDS011;47054;39.716;2.904;2023-04-01T17:41:42;23.55;;;5.95;;
61188;SDS011;47054;39.716;2.904;2023-04-01T17:56:30;20.95;;;5.38;;
61188;SDS011;47054;39.716;2.904;2023-04-01T18:02:31;22.45;;;5.00;;
61188;SDS011;47054;39.716;2.904;2023-04-01T18:05:27;25.83;;;5.53;;
61188;SDS011;47054;39.716;2.904;2023-04-01T18:11:39;21.65;;;5.53;;
61188;SDS011;47054;39.716;2.904;2023-04-01T18:24:19;17.50;;;5.38;;
61188;SDS011;47054;39.716;2.904;2023-04-01T18:27:38;16.70;;;5.03;;
61188;SDS011;47054;39.716;2.904;2023-04-01T18:30:35;16.30;;;4.80;;
61188;SDS011;47054;39.716;2.904;2023-04-01T18:36:33;17.60;;;4.60;;
61188;SDS011;47054;39.716;2.904;2023-04-01T18:39:37;14.98;;;4.88;;
61188;SDS011;47054;39.716;2.904;2023-04-01T18:42:36;13.75;;;4.70;;
61188;SDS011;47054;39.716;2.904;2023-04-01T18:45:40;16.60;;;5.07;;
61188;SDS011;47054;39.716;2.904;2023-04-01T18:51:46;13.25;;;4.82;;
61188;SDS011;47054;39.716;2.904;2023-04-01T18:54:42;16.30;;;4.53;;
61188;SDS011;47054;39.716;2.904;2023-04-01T19:00:34;14.93;;;5.03;;
61188;SDS011;47054;39.716;2.904;2023-04-01T19:09:32;16.52;;;4.53;;
61188;SDS011;47054;39.716;2.904;2023-04-01T19:15:50;18.23;;;5.00;;
61188;SDS011;47054;39.716;2.904;2023-04-01T19:21:48;18.55;;;4.78;;
61188;SDS011;47054;39.716;2.904;2023-04-01T19:30:57;16.13;;;5.00;;
61188;SDS011;47054;39.716;2.904;2023-04-01T19:42:31;13.45;;;4.50;;
61188;SDS011;47054;39.716;2.904;2023-04-01T19:45:43;16.58;;;5.53;;
61188;SDS011;47054;39.716;2.904;2023-04-01T20:00:28;9.65;;;4.53;;
61188;SDS011;47054;39.716;2.904;2023-04-01T20:06:23;15.05;;;4.78;;
61188;SDS011;47054;39.716;2.904;2023-04-01T20:15:04;12.93;;;4.32;;
61188;SDS011;47054;39.716;2.904;2023-04-01T20:18:33;10.70;;;4.03;;
61188;SDS011;47054;39.716;2.904;2023-04-01T20:24:36;10.07;;;4.78;;
61188;SDS011;47054;39.716;2.904;2023-04-01T20:27:31;10.55;;;4.68;;
61188;SDS011;47054;39.716;2.904;2023-04-01T20:39:15;13.23;;;5.25;;
61188;SDS011;47054;39.716;2.904;2023-04-01T21:01:40;11.18;;;3.83;;
61188;SDS011;47054;39.716;2.904;2023-04-01T21:10:39;9.40;;;4.18;;
61188;SDS011;47054;39.716;2.904;2023-04-01T21:23:06;7.95;;;3.90;;
61188;SDS011;47054;39.716;2.904;2023-04-01T21:35:37;8.50;;;3.80;;
61188;SDS011;47054;39.716;2.904;2023-04-01T21:45:03;8.68;;;3.63;;
61188;SDS011;47054;39.716;2.904;2023-04-01T22:00:18;10.93;;;4.00;;
61188;SDS011;47054;39.716;2.904;2023-04-01T22:12:07;9.15;;;3.42;;
61188;SDS011;47054;39.716;2.904;2023-04-01T22:15:08;7.38;;;3.03;;
61188;SDS011;47054;39.716;2.904;2023-04-01T22:18:06;8.60;;;3.30;;
61188;SDS011;47054;39.716;2.904;2023-04-01T22:21:05;7.35;;;2.85;;
61188;SDS011;47054;39.716;2.904;2023-04-01T22:23:59;7.53;;;3.08;;
61188;SDS011;47054;39.716;2.904;2023-04-01T22:30:31;8.23;;;2.80;;
61188;SDS011;47054;39.716;2.904;2023-04-01T22:39:43;5.57;;;2.72;;
61188;SDS011;47054;39.716;2.904;2023-04-01T22:45:38;5.13;;;2.25;;
61188;SDS011;47054;39.716;2.904;2023-04-01T22:48:36;4.45;;;2.50;;
61188;SDS011;47054;39.716;2.904;2023-04-01T22:55:04;7.05;;;2.80;;
61188;SDS011;47054;39.716;2.904;2023-04-01T22:57:59;4.00;;;2.17;;
61188;SDS011;47054;39.716;2.904;2023-04-01T23:01:07;3.78;;;2.10;;
61188;SDS011;47054;39.716;2.904;2023-04-01T23:03:56;4.88;;;2.05;;
61188;SDS011;47054;39.716;2.904;2023-04-01T23:06:44;3.95;;;2.10;;
61188;SDS011;47054;39.716;2.904;2023-04-01T23:09:34;6.35;;;2.03;;
61188;SDS011;47054;39.716;2.904;2023-04-01T23:12:21;5.07;;;2.20;;
61188;SDS011;47054;39.716;2.904;2023-04-01T23:15:11;8.82;;;2.70;;
61188;SDS011;47054;39.716;2.904;2023-04-01T23:20:59;6.05;;;2.00;;
61188;SDS011;47054;39.716;2.904;2023-04-01T23:29:18;5.97;;;1.80;;
61188;SDS011;47054;39.716;2.904;2023-04-01T23:32:05;7.68;;;1.83;;
61188;SDS011;47054;39.716;2.904;2023-04-01T23:34:58;4.57;;;1.80;;
61188;SDS011;47054;39.716;2.904;2023-04-01T23:37:44;4.18;;;1.60;;
61188;SDS011;47054;39.716;2.904;2023-04-01T23:40:30;7.95;;;2.15;;
61188;SDS011;47054;39.716;2.904;2023-04-01T23:43:18;3.35;;;1.80;;
61188;SDS011;47054;39.716;2.904;2023-04-01T23:46:05;3.65;;;1.77;;
61188;SDS011;47054;39.716;2.904;2023-04-01T23:48:51;4.13;;;1.70;;
61188;SDS011;47054;39.716;2.904;2023-04-01T23:51:38;4.63;;;1.90;;
61188;SDS011;47054;39.716;2.904;2023-04-01T23:54:44;5.43;;;1.83;;
61188;SDS011;47054;39.716;2.904;2023-04-01T23:57:35;4.00;;;1.80;;
